sensor_id;sensor_type;location;lat;lon;timestamp;P1;durP1;ratioP1;P2;durP2;ratioP2
77018;SDS011;66044;53.142;17.962;2023-06-14T00:02:17;10.90;;;3.60;;
77018;SDS011;66044;53.142;17.962;2023-06-14T00:04:44;8.40;;;3.30;;
77018;SDS011;66044;53.142;17.962;2023-06-14T00:07:11;9.20;;;3.00;;
77018;SDS011;66044;53.142;17.962;2023-06-14T00:09:39;8.10;;;3.90;;
77018;SDS011;66044;53.142;17.962;2023-06-14T00:12:06;11.60;;;4.30;;
77018;SDS011;66044;53.142;17.962;2023-06-14T00:14:34;9.60;;;3.70;;
77018;SDS011;66044;53.142;17.962;2023-06-14T00:17:01;9.10;;;3.60;;
77018;SDS011;66044;53.142;17.962;2023-06-14T00:19:29;9.30;;;4.10;;
77018;SDS011;66044;53.142;17.962;2023-06-14T00:21:59;12.20;;;4.60;;
77018;SDS011;66044;53.142;17.962;2023-06-14T00:24:25;10.90;;;3.70;;
77018;SDS011;66044;53.142;17.962;2023-06-14T00:26:51;9.60;;;4.10;;
77018;SDS011;66044;53.142;17.962;2023-06-14T00:29:18;7.10;;;3.30;;
77018;SDS011;66044;53.142;17.962;2023-06-14T00:31:44;9.10;;;3.90;;
77018;SDS011;66044;53.142;17.962;2023-06-14T00:34:11;8.80;;;3.80;;
77018;SDS011;66044;53.142;17.962;2023-06-14T00:36:37;10.20;;;3.70;;
77018;SDS011;66044;53.142;17.962;2023-06-14T00:39:04;7.70;;;3.70;;
77018;SDS011;66044;53.142;17.962;2023-06-14T00:41:30;7.50;;;3.50;;
77018;SDS011;66044;53.142;17.962;2023-06-14T00:43:57;9.10;;;3.90;;
77018;SDS011;66044;53.142;17.962;2023-06-14T00:46:23;8.60;;;3.80;;
77018;SDS011;66044;53.142;17.962;2023-06-14T00:48:49;8.40;;;3.60;;
77018;SDS011;66044;53.142;17.962;2023-06-14T00:51:16;7.50;;;3.40;;
77018;SDS011;66044;53.142;17.962;2023-06-14T00:53:43;8.10;;;3.50;;
77018;SDS011;66044;53.142;17.962;2023-06-14T00:56:13;8.60;;;3.90;;
77018;SDS011;66044;53.142;17.962;2023-06-14T00:58:41;7.20;;;3.20;;
77018;SDS011;66044;53.142;17.962;2023-06-14T01:01:08;10.80;;;3.90;;
77018;SDS011;66044;53.142;17.962;2023-06-14T01:03:34;7.70;;;3.50;;
77018;SDS011;66044;53.142;17.962;2023-06-14T01:06:05;8.20;;;3.60;;
77018;SDS011;66044;53.142;17.962;2023-06-14T01:08:50;8.70;;;4.00;;
77018;SDS011;66044;53.142;17.962;2023-06-14T01:11:24;9.20;;;4.10;;
77018;SDS011;66044;53.142;17.962;2023-06-14T01:13:58;8.60;;;3.90;;
77018;SDS011;66044;53.142;17.962;2023-06-14T01:16:28;8.60;;;4.20;;
77018;SDS011;66044;53.142;17.962;2023-06-14T01:18:57;9.20;;;4.90;;
77018;SDS011;66044;53.142;17.962;2023-06-14T01:21:25;8.50;;;4.20;;
77018;SDS011;66044;53.142;17.962;2023-06-14T01:23:52;10.20;;;4.30;;
77018;SDS011;66044;53.142;17.962;2023-06-14T01:26:19;8.70;;;4.40;;
77018;SDS011;66044;53.142;17.962;2023-06-14T01:28:47;7.50;;;4.00;;
77018;SDS011;66044;53.142;17.962;2023-06-14T01:31:17;9.40;;;4.10;;
77018;SDS011;66044;53.142;17.962;2023-06-14T01:33:50;8.40;;;3.70;;
77018;SDS011;66044;53.142;17.962;2023-06-14T01:36:20;10.00;;;3.60;;
77018;SDS011;66044;53.142;17.962;2023-06-14T01:38:48;8.30;;;3.50;;
77018;SDS011;66044;53.142;17.962;2023-06-14T01:41:18;9.20;;;3.80;;
77018;SDS011;66044;53.142;17.962;2023-06-14T01:43:47;17.90;;;4.30;;
77018;SDS011;66044;53.142;17.962;2023-06-14T01:46:15;9.50;;;4.40;;
77018;SDS011;66044;53.142;17.962;2023-06-14T01:48:42;7.80;;;4.20;;
77018;SDS011;66044;53.142;17.962;2023-06-14T01:51:10;9.50;;;3.80;;
77018;SDS011;66044;53.142;17.962;2023-06-14T01:53:36;8.40;;;4.20;;
77018;SDS011;66044;53.142;17.962;2023-06-14T01:56:02;8.30;;;4.00;;
77018;SDS011;66044;53.142;17.962;2023-06-14T01:58:29;8.60;;;4.40;;
77018;SDS011;66044;53.142;17.962;2023-06-14T02:00:56;8.50;;;4.30;;
77018;SDS011;66044;53.142;17.962;2023-06-14T02:03:22;10.40;;;4.20;;
77018;SDS011;66044;53.142;17.962;2023-06-14T02:05:50;10.60;;;4.70;;
77018;SDS011;66044;53.142;17.962;2023-06-14T02:08:16;10.00;;;4.30;;
77018;SDS011;66044;53.142;17.962;2023-06-14T02:10:43;9.70;;;4.30;;
77018;SDS011;66044;53.142;17.962;2023-06-14T02:13:09;9.80;;;4.30;;
77018;SDS011;66044;53.142;17.962;2023-06-14T02:15:36;9.90;;;4.30;;
77018;SDS011;66044;53.142;17.962;2023-06-14T02:18:03;9.50;;;3.80;;
77018;SDS011;66044;53.142;17.962;2023-06-14T02:20:30;9.20;;;4.00;;
77018;SDS011;66044;53.142;17.962;2023-06-14T02:22:57;8.40;;;3.60;;
77018;SDS011;66044;53.142;17.962;2023-06-14T02:25:24;7.30;;;3.40;;
77018;SDS011;66044;53.142;17.962;2023-06-14T02:27:51;7.60;;;3.90;;
77018;SDS011;66044;53.142;17.962;2023-06-14T02:30:17;8.60;;;4.40;;
77018;SDS011;66044;53.142;17.962;2023-06-14T02:32:43;9.00;;;4.90;;
77018;SDS011;66044;53.142;17.962;2023-06-14T02:35:10;10.00;;;5.70;;
77018;SDS011;66044;53.142;17.962;2023-06-14T02:37:36;10.10;;;4.60;;
77018;SDS011;66044;53.142;17.962;2023-06-14T02:40:04;11.30;;;4.10;;
77018;SDS011;66044;53.142;17.962;2023-06-14T02:42:33;8.60;;;4.00;;
77018;SDS011;66044;53.142;17.962;2023-06-14T02:44:59;9.90;;;3.50;;
77018;SDS011;66044;53.142;17.962;2023-06-14T02:47:26;8.00;;;3.70;;
77018;SDS011;66044;53.142;17.962;2023-06-14T02:49:53;9.00;;;4.00;;
77018;SDS011;66044;53.142;17.962;2023-06-14T02:52:19;10.60;;;4.20;;
77018;SDS011;66044;53.142;17.962;2023-06-14T02:54:46;10.30;;;4.50;;
77018;SDS011;66044;53.142;17.962;2023-06-14T02:57:14;7.80;;;4.20;;
77018;SDS011;66044;53.142;17.962;2023-06-14T02:59:41;9.50;;;4.10;;
77018;SDS011;66044;53.142;17.962;2023-06-14T03:02:07;9.80;;;3.50;;
77018;SDS011;66044;53.142;17.962;2023-06-14T03:04:34;8.00;;;3.60;;
77018;SDS011;66044;53.142;17.962;2023-06-14T03:07:04;7.70;;;3.50;;
77018;SDS011;66044;53.142;17.962;2023-06-14T03:09:37;10.20;;;3.90;;
77018;SDS011;66044;53.142;17.962;2023-06-14T03:12:04;7.90;;;4.20;;
77018;SDS011;66044;53.142;17.962;2023-06-14T03:14:33;8.50;;;3.80;;
77018;SDS011;66044;53.142;17.962;2023-06-14T03:17:01;9.50;;;3.90;;
77018;SDS011;66044;53.142;17.962;2023-06-14T03:19:28;8.50;;;3.90;;
77018;SDS011;66044;53.142;17.962;2023-06-14T03:21:54;8.60;;;4.20;;
77018;SDS011;66044;53.142;17.962;2023-06-14T03:24:26;9.90;;;4.00;;
77018;SDS011;66044;53.142;17.962;2023-06-14T03:26:57;7.70;;;3.70;;
77018;SDS011;66044;53.142;17.962;2023-06-14T03:29:24;8.60;;;3.70;;
77018;SDS011;66044;53.142;17.962;2023-06-14T03:31:58;9.30;;;4.00;;
77018;SDS011;66044;53.142;17.962;2023-06-14T03:34:26;8.40;;;3.60;;
77018;SDS011;66044;53.142;17.962;2023-06-14T03:36:53;7.40;;;3.70;;
77018;SDS011;66044;53.142;17.962;2023-06-14T03:39:20;8.40;;;3.70;;
77018;SDS011;66044;53.142;17.962;2023-06-14T03:41:47;11.30;;;3.60;;
77018;SDS011;66044;53.142;17.962;2023-06-14T03:44:17;8.70;;;3.80;;
77018;SDS011;66044;53.142;17.962;2023-06-14T03:46:45;9.10;;;3.10;;
77018;SDS011;66044;53.142;17.962;2023-06-14T03:49:12;7.20;;;3.40;;
77018;SDS011;66044;53.142;17.962;2023-06-14T03:51:39;8.40;;;3.50;;
77018;SDS011;66044;53.142;17.962;2023-06-14T03:54:06;7.40;;;3.50;;
77018;SDS011;66044;53.142;17.962;2023-06-14T03:56:33;7.00;;;3.20;;
77018;SDS011;66044;53.142;17.962;2023-06-14T03:59:00;9.40;;;3.50;;
77018;SDS011;66044;53.142;17.962;2023-06-14T04:01:27;8.00;;;3.70;;
77018;SDS011;66044;53.142;17.962;2023-06-14T04:03:56;7.10;;;3.20;;
77018;SDS011;66044;53.142;17.962;2023-06-14T04:06:24;7.30;;;3.50;;
77018;SDS011;66044;53.142;17.962;2023-06-14T04:09:17;8.70;;;3.50;;
77018;SDS011;66044;53.142;17.962;2023-06-14T04:12:34;7.90;;;3.70;;
77018;SDS011;66044;53.142;17.962;2023-06-14T04:15:01;7.10;;;3.20;;
77018;SDS011;66044;53.142;17.962;2023-06-14T04:17:27;7.70;;;3.10;;
77018;SDS011;66044;53.142;17.962;2023-06-14T04:19:54;6.70;;;3.20;;
77018;SDS011;66044;53.142;17.962;2023-06-14T04:22:20;7.20;;;3.30;;
77018;SDS011;66044;53.142;17.962;2023-06-14T04:24:47;7.40;;;3.10;;
77018;SDS011;66044;53.142;17.962;2023-06-14T04:27:15;8.10;;;3.60;;
77018;SDS011;66044;53.142;17.962;2023-06-14T04:29:47;6.70;;;3.00;;
77018;SDS011;66044;53.142;17.962;2023-06-14T04:32:19;6.50;;;2.60;;
77018;SDS011;66044;53.142;17.962;2023-06-14T04:34:45;8.20;;;3.40;;
77018;SDS011;66044;53.142;17.962;2023-06-14T04:37:13;9.10;;;3.40;;
77018;SDS011;66044;53.142;17.962;2023-06-14T04:39:40;7.70;;;2.90;;
77018;SDS011;66044;53.142;17.962;2023-06-14T04:42:08;9.90;;;3.60;;
77018;SDS011;66044;53.142;17.962;2023-06-14T04:44:37;7.80;;;3.20;;
77018;SDS011;66044;53.142;17.962;2023-06-14T04:47:06;10.90;;;3.60;;
77018;SDS011;66044;53.142;17.962;2023-06-14T04:49:33;8.50;;;3.40;;
77018;SDS011;66044;53.142;17.962;2023-06-14T04:52:00;7.30;;;3.40;;
77018;SDS011;66044;53.142;17.962;2023-06-14T04:54:29;9.00;;;3.60;;
77018;SDS011;66044;53.142;17.962;2023-06-14T04:56:57;7.90;;;3.40;;
77018;SDS011;66044;53.142;17.962;2023-06-14T04:59:24;10.20;;;3.50;;
77018;SDS011;66044;53.142;17.962;2023-06-14T05:01:51;8.60;;;3.70;;
77018;SDS011;66044;53.142;17.962;2023-06-14T05:04:19;9.40;;;4.10;;
77018;SDS011;66044;53.142;17.962;2023-06-14T05:06:47;8.30;;;3.50;;
77018;SDS011;66044;53.142;17.962;2023-06-14T05:09:14;10.70;;;4.40;;
77018;SDS011;66044;53.142;17.962;2023-06-14T05:11:43;12.10;;;3.80;;
77018;SDS011;66044;53.142;17.962;2023-06-14T05:14:13;9.20;;;3.80;;
77018;SDS011;66044;53.142;17.962;2023-06-14T05:16:40;10.10;;;3.60;;
77018;SDS011;66044;53.142;17.962;2023-06-14T05:19:07;8.10;;;3.20;;
77018;SDS011;66044;53.142;17.962;2023-06-14T05:21:39;9.40;;;3.50;;
77018;SDS011;66044;53.142;17.962;2023-06-14T05:24:07;10.20;;;4.10;;
77018;SDS011;66044;53.142;17.962;2023-06-14T05:26:35;7.40;;;3.30;;
77018;SDS011;66044;53.142;17.962;2023-06-14T05:29:02;9.50;;;3.30;;
77018;SDS011;66044;53.142;17.962;2023-06-14T05:31:30;8.10;;;3.20;;
77018;SDS011;66044;53.142;17.962;2023-06-14T05:34:04;8.70;;;3.80;;
77018;SDS011;66044;53.142;17.962;2023-06-14T05:36:30;9.10;;;4.10;;
77018;SDS011;66044;53.142;17.962;2023-06-14T05:38:57;8.80;;;3.30;;
77018;SDS011;66044;53.142;17.962;2023-06-14T05:41:26;10.00;;;3.50;;
77018;SDS011;66044;53.142;17.962;2023-06-14T05:43:54;10.20;;;4.20;;
77018;SDS011;66044;53.142;17.962;2023-06-14T05:46:21;9.30;;;3.70;;
77018;SDS011;66044;53.142;17.962;2023-06-14T05:48:52;11.30;;;4.10;;
77018;SDS011;66044;53.142;17.962;2023-06-14T05:51:19;9.70;;;4.40;;
77018;SDS011;66044;53.142;17.962;2023-06-14T05:53:45;8.60;;;3.90;;
77018;SDS011;66044;53.142;17.962;2023-06-14T05:56:13;12.70;;;4.20;;
77018;SDS011;66044;53.142;17.962;2023-06-14T05:58:43;13.00;;;3.90;;
77018;SDS011;66044;53.142;17.962;2023-06-14T06:01:10;9.80;;;3.90;;
77018;SDS011;66044;53.142;17.962;2023-06-14T06:03:37;9.00;;;4.00;;
77018;SDS011;66044;53.142;17.962;2023-06-14T06:06:04;9.90;;;4.10;;
77018;SDS011;66044;53.142;17.962;2023-06-14T06:08:31;12.70;;;3.70;;
77018;SDS011;66044;53.142;17.962;2023-06-14T06:10:59;9.30;;;3.60;;
77018;SDS011;66044;53.142;17.962;2023-06-14T06:13:28;8.30;;;2.90;;
77018;SDS011;66044;53.142;17.962;2023-06-14T06:15:54;9.70;;;3.00;;
77018;SDS011;66044;53.142;17.962;2023-06-14T06:18:20;8.20;;;3.10;;
77018;SDS011;66044;53.142;17.962;2023-06-14T06:20:47;10.50;;;3.90;;
77018;SDS011;66044;53.142;17.962;2023-06-14T06:23:13;10.00;;;3.50;;
77018;SDS011;66044;53.142;17.962;2023-06-14T06:25:40;12.70;;;3.20;;
77018;SDS011;66044;53.142;17.962;2023-06-14T06:28:07;7.80;;;3.00;;
77018;SDS011;66044;53.142;17.962;2023-06-14T06:30:33;9.00;;;3.30;;
77018;SDS011;66044;53.142;17.962;2023-06-14T06:33:00;8.40;;;3.40;;
77018;SDS011;66044;53.142;17.962;2023-06-14T06:35:27;9.60;;;3.30;;
77018;SDS011;66044;53.142;17.962;2023-06-14T06:37:53;10.50;;;3.30;;
77018;SDS011;66044;53.142;17.962;2023-06-14T06:40:19;9.40;;;2.70;;
77018;SDS011;66044;53.142;17.962;2023-06-14T06:42:46;6.10;;;2.60;;
77018;SDS011;66044;53.142;17.962;2023-06-14T06:45:13;8.90;;;3.00;;
77018;SDS011;66044;53.142;17.962;2023-06-14T06:47:39;9.20;;;3.00;;
77018;SDS011;66044;53.142;17.962;2023-06-14T06:50:06;7.30;;;2.70;;
77018;SDS011;66044;53.142;17.962;2023-06-14T06:52:34;9.50;;;3.00;;
77018;SDS011;66044;53.142;17.962;2023-06-14T06:55:00;9.20;;;3.20;;
77018;SDS011;66044;53.142;17.962;2023-06-14T06:57:28;8.70;;;3.20;;
77018;SDS011;66044;53.142;17.962;2023-06-14T06:59:55;9.00;;;3.00;;
77018;SDS011;66044;53.142;17.962;2023-06-14T07:02:22;8.20;;;3.10;;
77018;SDS011;66044;53.142;17.962;2023-06-14T07:04:48;10.00;;;3.00;;
77018;SDS011;66044;53.142;17.962;2023-06-14T07:07:14;8.70;;;3.40;;
77018;SDS011;66044;53.142;17.962;2023-06-14T07:09:41;9.10;;;3.10;;
77018;SDS011;66044;53.142;17.962;2023-06-14T07:12:08;9.30;;;3.30;;
77018;SDS011;66044;53.142;17.962;2023-06-14T07:14:35;7.70;;;2.80;;
77018;SDS011;66044;53.142;17.962;2023-06-14T07:17:01;7.90;;;3.00;;
77018;SDS011;66044;53.142;17.962;2023-06-14T07:19:28;8.70;;;3.00;;
77018;SDS011;66044;53.142;17.962;2023-06-14T07:21:54;9.30;;;2.80;;
77018;SDS011;66044;53.142;17.962;2023-06-14T07:24:21;8.40;;;2.90;;
77018;SDS011;66044;53.142;17.962;2023-06-14T07:26:47;8.00;;;3.50;;
77018;SDS011;66044;53.142;17.962;2023-06-14T07:29:17;8.40;;;2.60;;
77018;SDS011;66044;53.142;17.962;2023-06-14T07:31:43;7.40;;;2.60;;
77018;SDS011;66044;53.142;17.962;2023-06-14T07:34:10;6.80;;;2.80;;
77018;SDS011;66044;53.142;17.962;2023-06-14T07:36:36;9.30;;;3.20;;
77018;SDS011;66044;53.142;17.962;2023-06-14T07:39:04;8.70;;;3.10;;
77018;SDS011;66044;53.142;17.962;2023-06-14T07:41:33;8.00;;;2.80;;
77018;SDS011;66044;53.142;17.962;2023-06-14T07:43:59;7.30;;;2.90;;
77018;SDS011;66044;53.142;17.962;2023-06-14T07:46:26;10.40;;;2.70;;
77018;SDS011;66044;53.142;17.962;2023-06-14T07:48:52;10.60;;;2.70;;
77018;SDS011;66044;53.142;17.962;2023-06-14T07:51:19;11.20;;;2.60;;
77018;SDS011;66044;53.142;17.962;2023-06-14T07:53:47;8.80;;;3.10;;
77018;SDS011;66044;53.142;17.962;2023-06-14T07:56:14;12.70;;;3.10;;
77018;SDS011;66044;53.142;17.962;2023-06-14T07:58:41;7.00;;;2.90;;
77018;SDS011;66044;53.142;17.962;2023-06-14T08:01:08;9.70;;;3.30;;
77018;SDS011;66044;53.142;17.962;2023-06-14T08:03:40;11.60;;;3.40;;
77018;SDS011;66044;53.142;17.962;2023-06-14T08:06:06;8.50;;;2.90;;
77018;SDS011;66044;53.142;17.962;2023-06-14T08:08:33;8.60;;;3.30;;
77018;SDS011;66044;53.142;17.962;2023-06-14T08:11:00;7.70;;;3.00;;
77018;SDS011;66044;53.142;17.962;2023-06-14T08:13:27;12.20;;;2.80;;
77018;SDS011;66044;53.142;17.962;2023-06-14T08:15:53;8.50;;;3.30;;
77018;SDS011;66044;53.142;17.962;2023-06-14T08:18:23;9.50;;;3.10;;
77018;SDS011;66044;53.142;17.962;2023-06-14T08:20:50;7.80;;;3.10;;
77018;SDS011;66044;53.142;17.962;2023-06-14T08:23:16;7.70;;;2.70;;
77018;SDS011;66044;53.142;17.962;2023-06-14T08:25:45;7.80;;;3.10;;
77018;SDS011;66044;53.142;17.962;2023-06-14T08:28:11;8.90;;;3.20;;
77018;SDS011;66044;53.142;17.962;2023-06-14T08:30:38;6.50;;;2.60;;
77018;SDS011;66044;53.142;17.962;2023-06-14T08:33:04;8.90;;;3.00;;
77018;SDS011;66044;53.142;17.962;2023-06-14T08:35:31;6.80;;;2.70;;
77018;SDS011;66044;53.142;17.962;2023-06-14T08:37:58;8.40;;;3.10;;
77018;SDS011;66044;53.142;17.962;2023-06-14T08:40:25;8.00;;;2.60;;
77018;SDS011;66044;53.142;17.962;2023-06-14T08:42:55;10.00;;;3.30;;
77018;SDS011;66044;53.142;17.962;2023-06-14T08:45:22;8.50;;;3.30;;
77018;SDS011;66044;53.142;17.962;2023-06-14T08:47:51;8.40;;;3.20;;
77018;SDS011;66044;53.142;17.962;2023-06-14T08:50:21;9.20;;;3.10;;
77018;SDS011;66044;53.142;17.962;2023-06-14T08:52:53;9.30;;;3.30;;
77018;SDS011;66044;53.142;17.962;2023-06-14T08:55:23;10.60;;;3.10;;
77018;SDS011;66044;53.142;17.962;2023-06-14T08:57:53;9.50;;;3.30;;
77018;SDS011;66044;53.142;17.962;2023-06-14T09:00:24;6.90;;;3.00;;
77018;SDS011;66044;53.142;17.962;2023-06-14T09:02:52;9.10;;;2.70;;
77018;SDS011;66044;53.142;17.962;2023-06-14T09:05:24;7.00;;;3.10;;
77018;SDS011;66044;53.142;17.962;2023-06-14T09:07:51;7.90;;;3.30;;
77018;SDS011;66044;53.142;17.962;2023-06-14T09:10:19;7.10;;;2.70;;
77018;SDS011;66044;53.142;17.962;2023-06-14T09:12:47;8.70;;;3.10;;
77018;SDS011;66044;53.142;17.962;2023-06-14T09:15:14;8.60;;;3.00;;
77018;SDS011;66044;53.142;17.962;2023-06-14T09:17:40;7.10;;;2.90;;
77018;SDS011;66044;53.142;17.962;2023-06-14T09:20:08;6.60;;;2.40;;
77018;SDS011;66044;53.142;17.962;2023-06-14T09:22:44;10.50;;;3.10;;
77018;SDS011;66044;53.142;17.962;2023-06-14T09:25:12;7.20;;;2.70;;
77018;SDS011;66044;53.142;17.962;2023-06-14T09:27:41;7.70;;;2.80;;
77018;SDS011;66044;53.142;17.962;2023-06-14T09:30:09;8.30;;;3.00;;
77018;SDS011;66044;53.142;17.962;2023-06-14T09:32:36;9.90;;;3.10;;
77018;SDS011;66044;53.142;17.962;2023-06-14T09:35:05;7.60;;;3.10;;
77018;SDS011;66044;53.142;17.962;2023-06-14T09:37:33;10.20;;;3.10;;
77018;SDS011;66044;53.142;17.962;2023-06-14T09:40:00;7.40;;;3.20;;
77018;SDS011;66044;53.142;17.962;2023-06-14T09:42:27;8.30;;;3.10;;
77018;SDS011;66044;53.142;17.962;2023-06-14T09:44:55;8.20;;;3.20;;
77018;SDS011;66044;53.142;17.962;2023-06-14T09:47:23;7.80;;;3.00;;
77018;SDS011;66044;53.142;17.962;2023-06-14T09:49:50;7.80;;;2.80;;
77018;SDS011;66044;53.142;17.962;2023-06-14T09:52:18;10.00;;;2.90;;
77018;SDS011;66044;53.142;17.962;2023-06-14T09:54:47;11.20;;;3.20;;
77018;SDS011;66044;53.142;17.962;2023-06-14T09:57:20;7.70;;;3.30;;
77018;SDS011;66044;53.142;17.962;2023-06-14T09:59:48;7.40;;;3.00;;
77018;SDS011;66044;53.142;17.962;2023-06-14T10:02:26;8.60;;;2.90;;
77018;SDS011;66044;53.142;17.962;2023-06-14T10:05:03;7.90;;;3.20;;
77018;SDS011;66044;53.142;17.962;2023-06-14T10:07:38;9.20;;;3.10;;
77018;SDS011;66044;53.142;17.962;2023-06-14T10:10:08;7.70;;;3.00;;
77018;SDS011;66044;53.142;17.962;2023-06-14T10:12:36;8.40;;;3.30;;
77018;SDS011;66044;53.142;17.962;2023-06-14T10:15:02;8.40;;;3.40;;
77018;SDS011;66044;53.142;17.962;2023-06-14T10:17:46;8.20;;;3.20;;
77018;SDS011;66044;53.142;17.962;2023-06-14T10:20:19;9.20;;;3.00;;
77018;SDS011;66044;53.142;17.962;2023-06-14T10:22:50;7.00;;;2.90;;
77018;SDS011;66044;53.142;17.962;2023-06-14T10:25:28;8.20;;;3.10;;
77018;SDS011;66044;53.142;17.962;2023-06-14T10:30:38;9.50;;;2.80;;
77018;SDS011;66044;53.142;17.962;2023-06-14T10:33:05;6.90;;;2.50;;
77018;SDS011;66044;53.142;17.962;2023-06-14T10:35:36;7.20;;;2.80;;
77018;SDS011;66044;53.142;17.962;2023-06-14T10:38:06;7.70;;;3.60;;
77018;SDS011;66044;53.142;17.962;2023-06-14T10:40:34;9.30;;;3.70;;
77018;SDS011;66044;53.142;17.962;2023-06-14T10:43:01;7.00;;;2.70;;
77018;SDS011;66044;53.142;17.962;2023-06-14T10:48:40;9.90;;;3.20;;
77018;SDS011;66044;53.142;17.962;2023-06-14T10:51:15;8.20;;;2.80;;
77018;SDS011;66044;53.142;17.962;2023-06-14T10:53:50;8.40;;;2.80;;
77018;SDS011;66044;53.142;17.962;2023-06-14T10:56:27;7.60;;;3.20;;
77018;SDS011;66044;53.142;17.962;2023-06-14T10:58:57;9.10;;;2.80;;
77018;SDS011;66044;53.142;17.962;2023-06-14T11:01:36;9.00;;;3.30;;
77018;SDS011;66044;53.142;17.962;2023-06-14T11:04:08;10.20;;;4.10;;
77018;SDS011;66044;53.142;17.962;2023-06-14T11:06:47;9.20;;;3.40;;
77018;SDS011;66044;53.142;17.962;2023-06-14T11:12:02;8.50;;;3.90;;
77018;SDS011;66044;53.142;17.962;2023-06-14T11:14:30;9.50;;;3.20;;
77018;SDS011;66044;53.142;17.962;2023-06-14T11:16:57;8.80;;;3.50;;
77018;SDS011;66044;53.142;17.962;2023-06-14T11:19:24;10.60;;;3.40;;
77018;SDS011;66044;53.142;17.962;2023-06-14T11:21:51;9.20;;;3.40;;
77018;SDS011;66044;53.142;17.962;2023-06-14T11:24:17;9.70;;;3.50;;
77018;SDS011;66044;53.142;17.962;2023-06-14T11:26:44;9.90;;;3.50;;
77018;SDS011;66044;53.142;17.962;2023-06-14T11:29:11;9.80;;;3.60;;
77018;SDS011;66044;53.142;17.962;2023-06-14T11:31:37;10.30;;;3.50;;
77018;SDS011;66044;53.142;17.962;2023-06-14T11:34:09;8.00;;;3.30;;
77018;SDS011;66044;53.142;17.962;2023-06-14T11:36:36;7.90;;;3.20;;
77018;SDS011;66044;53.142;17.962;2023-06-14T11:39:03;10.90;;;3.50;;
77018;SDS011;66044;53.142;17.962;2023-06-14T11:41:35;8.00;;;3.60;;
77018;SDS011;66044;53.142;17.962;2023-06-14T11:44:03;7.30;;;3.00;;
77018;SDS011;66044;53.142;17.962;2023-06-14T11:46:30;9.00;;;3.20;;
77018;SDS011;66044;53.142;17.962;2023-06-14T11:48:57;8.50;;;3.00;;
77018;SDS011;66044;53.142;17.962;2023-06-14T11:51:24;7.80;;;2.80;;
77018;SDS011;66044;53.142;17.962;2023-06-14T11:53:51;9.70;;;3.30;;
77018;SDS011;66044;53.142;17.962;2023-06-14T11:56:17;8.20;;;3.30;;
77018;SDS011;66044;53.142;17.962;2023-06-14T11:58:44;7.30;;;2.90;;
77018;SDS011;66044;53.142;17.962;2023-06-14T12:01:15;7.10;;;3.10;;
77018;SDS011;66044;53.142;17.962;2023-06-14T12:03:49;6.80;;;2.90;;
77018;SDS011;66044;53.142;17.962;2023-06-14T12:06:24;6.70;;;2.90;;
77018;SDS011;66044;53.142;17.962;2023-06-14T12:08:55;8.90;;;3.30;;
77018;SDS011;66044;53.142;17.962;2023-06-14T12:11:22;9.30;;;3.20;;
77018;SDS011;66044;53.142;17.962;2023-06-14T12:13:49;9.70;;;3.20;;
77018;SDS011;66044;53.142;17.962;2023-06-14T12:16:15;7.80;;;3.30;;
77018;SDS011;66044;53.142;17.962;2023-06-14T12:18:42;7.70;;;3.50;;
77018;SDS011;66044;53.142;17.962;2023-06-14T12:21:09;8.70;;;3.70;;
77018;SDS011;66044;53.142;17.962;2023-06-14T12:23:46;10.50;;;3.20;;
77018;SDS011;66044;53.142;17.962;2023-06-14T12:26:15;9.00;;;3.70;;
77018;SDS011;66044;53.142;17.962;2023-06-14T12:28:44;8.40;;;3.70;;
77018;SDS011;66044;53.142;17.962;2023-06-14T12:31:12;7.80;;;3.40;;
77018;SDS011;66044;53.142;17.962;2023-06-14T12:33:39;7.10;;;3.20;;
77018;SDS011;66044;53.142;17.962;2023-06-14T12:36:09;10.30;;;3.00;;
77018;SDS011;66044;53.142;17.962;2023-06-14T12:38:36;8.70;;;3.30;;
77018;SDS011;66044;53.142;17.962;2023-06-14T12:41:03;10.20;;;3.30;;
77018;SDS011;66044;53.142;17.962;2023-06-14T12:43:30;12.00;;;3.50;;
77018;SDS011;66044;53.142;17.962;2023-06-14T12:45:56;9.80;;;3.60;;
77018;SDS011;66044;53.142;17.962;2023-06-14T12:48:23;10.70;;;3.60;;
77018;SDS011;66044;53.142;17.962;2023-06-14T12:50:50;8.20;;;3.60;;
77018;SDS011;66044;53.142;17.962;2023-06-14T12:53:16;8.40;;;2.50;;
77018;SDS011;66044;53.142;17.962;2023-06-14T12:55:43;8.40;;;2.60;;
77018;SDS011;66044;53.142;17.962;2023-06-14T12:58:09;8.60;;;2.70;;
77018;SDS011;66044;53.142;17.962;2023-06-14T13:00:39;8.50;;;2.80;;
77018;SDS011;66044;53.142;17.962;2023-06-14T13:03:05;7.60;;;3.00;;
77018;SDS011;66044;53.142;17.962;2023-06-14T13:05:32;9.00;;;3.40;;
77018;SDS011;66044;53.142;17.962;2023-06-14T13:07:59;11.00;;;3.70;;
77018;SDS011;66044;53.142;17.962;2023-06-14T13:10:26;10.30;;;2.80;;
77018;SDS011;66044;53.142;17.962;2023-06-14T13:12:54;10.90;;;3.20;;
77018;SDS011;66044;53.142;17.962;2023-06-14T13:15:20;10.60;;;3.50;;
77018;SDS011;66044;53.142;17.962;2023-06-14T13:17:47;10.20;;;3.40;;
77018;SDS011;66044;53.142;17.962;2023-06-14T13:20:14;10.50;;;3.80;;
77018;SDS011;66044;53.142;17.962;2023-06-14T13:22:42;6.70;;;2.90;;
77018;SDS011;66044;53.142;17.962;2023-06-14T13:25:09;9.20;;;3.60;;
77018;SDS011;66044;53.142;17.962;2023-06-14T13:27:35;9.20;;;4.00;;
77018;SDS011;66044;53.142;17.962;2023-06-14T13:30:02;9.40;;;3.60;;
77018;SDS011;66044;53.142;17.962;2023-06-14T13:32:31;9.70;;;3.90;;
77018;SDS011;66044;53.142;17.962;2023-06-14T13:34:58;10.30;;;3.90;;
77018;SDS011;66044;53.142;17.962;2023-06-14T13:37:24;8.50;;;3.50;;
77018;SDS011;66044;53.142;17.962;2023-06-14T13:39:51;8.00;;;3.30;;
77018;SDS011;66044;53.142;17.962;2023-06-14T13:42:17;8.60;;;3.70;;
77018;SDS011;66044;53.142;17.962;2023-06-14T13:44:44;8.10;;;3.70;;
77018;SDS011;66044;53.142;17.962;2023-06-14T13:47:10;8.20;;;3.50;;
77018;SDS011;66044;53.142;17.962;2023-06-14T13:49:37;10.60;;;3.40;;
77018;SDS011;66044;53.142;17.962;2023-06-14T13:52:03;7.50;;;3.40;;
77018;SDS011;66044;53.142;17.962;2023-06-14T13:54:30;7.60;;;3.30;;
77018;SDS011;66044;53.142;17.962;2023-06-14T13:56:57;8.00;;;3.80;;
77018;SDS011;66044;53.142;17.962;2023-06-14T13:59:23;9.50;;;3.90;;
77018;SDS011;66044;53.142;17.962;2023-06-14T14:01:49;8.70;;;3.40;;
77018;SDS011;66044;53.142;17.962;2023-06-14T14:04:16;8.90;;;3.10;;
77018;SDS011;66044;53.142;17.962;2023-06-14T14:06:43;8.40;;;3.50;;
77018;SDS011;66044;53.142;17.962;2023-06-14T14:09:09;8.00;;;3.30;;
77018;SDS011;66044;53.142;17.962;2023-06-14T14:11:36;9.40;;;4.70;;
77018;SDS011;66044;53.142;17.962;2023-06-14T14:14:02;8.80;;;3.80;;
77018;SDS011;66044;53.142;17.962;2023-06-14T14:16:29;8.00;;;3.40;;
77018;SDS011;66044;53.142;17.962;2023-06-14T14:18:56;7.70;;;3.20;;
77018;SDS011;66044;53.142;17.962;2023-06-14T14:21:23;9.00;;;3.40;;
77018;SDS011;66044;53.142;17.962;2023-06-14T14:23:49;8.30;;;3.50;;
77018;SDS011;66044;53.142;17.962;2023-06-14T14:26:16;9.50;;;3.60;;
77018;SDS011;66044;53.142;17.962;2023-06-14T14:28:42;8.20;;;3.30;;
77018;SDS011;66044;53.142;17.962;2023-06-14T14:31:09;7.50;;;3.40;;
77018;SDS011;66044;53.142;17.962;2023-06-14T14:33:35;8.60;;;3.40;;
77018;SDS011;66044;53.142;17.962;2023-06-14T14:36:02;7.80;;;3.30;;
77018;SDS011;66044;53.142;17.962;2023-06-14T14:38:30;7.10;;;3.40;;
77018;SDS011;66044;53.142;17.962;2023-06-14T14:40:56;7.20;;;3.10;;
77018;SDS011;66044;53.142;17.962;2023-06-14T14:43:23;8.70;;;3.50;;
77018;SDS011;66044;53.142;17.962;2023-06-14T14:45:49;8.10;;;3.20;;
77018;SDS011;66044;53.142;17.962;2023-06-14T14:48:16;8.00;;;3.30;;